createdAt,value
2023-05-22T00:01:48.596Z,4.07
2023-05-22T00:04:20.446Z,4.30
2023-05-22T00:06:47.468Z,3.92
2023-05-22T00:09:14.450Z,3.95
2023-05-22T00:11:41.331Z,4.50
2023-05-22T00:14:08.955Z,4.13
2023-05-22T00:16:35.701Z,4.15
2023-05-22T00:19:03.105Z,4.00
2023-05-22T00:21:34.176Z,4.05
2023-05-22T00:24:01.079Z,3.80
2023-05-22T00:26:27.833Z,4.10
2023-05-22T00:28:54.500Z,4.00
2023-05-22T00:31:21.798Z,4.40
2023-05-22T00:33:48.485Z,4.40
2023-05-22T00:36:15.251Z,4.10
2023-05-22T00:38:41.912Z,4.38
2023-05-22T00:41:08.596Z,3.97
2023-05-22T00:43:35.430Z,4.05
2023-05-22T00:46:02.376Z,4.30
2023-05-22T00:48:29.992Z,4.35
2023-05-22T00:50:58.954Z,3.92
2023-05-22T00:53:28.064Z,4.53
2023-05-22T00:55:55.235Z,4.72
2023-05-22T00:58:23.581Z,4.50
2023-05-22T01:00:50.796Z,4.47
2023-05-22T01:03:18.812Z,4.60
2023-05-22T01:05:46.191Z,4.10
2023-05-22T01:08:13.026Z,3.92
2023-05-22T01:10:40.382Z,3.97
2023-05-22T01:13:16.746Z,3.97
2023-05-22T01:15:48.833Z,4.57
2023-05-22T01:18:28.774Z,3.95
2023-05-22T01:21:03.674Z,4.07
2023-05-22T01:24:03.218Z,3.70
2023-05-22T01:26:49.103Z,4.63
2023-05-22T01:29:30.524Z,4.55
2023-05-22T01:32:00.234Z,3.72
2023-05-22T01:34:27.863Z,3.60
2023-05-22T01:36:56.045Z,4.03
2023-05-22T01:39:24.423Z,4.00
2023-05-22T01:41:51.708Z,4.22
2023-05-22T01:44:18.423Z,3.90
2023-05-22T01:46:45.408Z,3.78
2023-05-22T01:49:12.693Z,3.85
2023-05-22T01:51:47.612Z,4.18
2023-05-22T01:54:19.384Z,3.78
2023-05-22T01:56:54.143Z,4.32
2023-05-22T01:59:30.152Z,4.20
2023-05-22T02:02:03.149Z,4.43
2023-05-22T02:04:32.519Z,3.88
2023-05-22T02:07:00.418Z,3.97
2023-05-22T02:09:29.664Z,4.05
2023-05-22T02:11:57.024Z,4.70
2023-05-22T02:14:24.430Z,4.47
2023-05-22T02:16:51.419Z,3.92
2023-05-22T02:19:25.079Z,4.10
2023-05-22T02:21:52.457Z,4.45
2023-05-22T02:24:19.293Z,5.18
2023-05-22T02:26:47.064Z,4.00
2023-05-22T02:29:13.755Z,4.85
2023-05-22T02:31:40.498Z,4.60
2023-05-22T02:34:07.346Z,4.00
2023-05-22T02:36:34.060Z,4.38
2023-05-22T02:39:01.436Z,4.25
2023-05-22T02:41:28.206Z,4.63
2023-05-22T02:43:54.913Z,3.95
2023-05-22T02:46:21.599Z,4.43
2023-05-22T02:48:48.291Z,4.28
2023-05-22T02:51:15.599Z,4.40
2023-05-22T02:53:42.223Z,4.30
2023-05-22T02:56:10.474Z,4.45
2023-05-22T02:58:37.253Z,4.80
2023-05-22T03:01:05.900Z,3.97
2023-05-22T03:03:33.222Z,4.25
2023-05-22T03:06:01.120Z,4.30
2023-05-22T03:08:28.524Z,4.50
2023-05-22T03:10:55.755Z,4.57
2023-05-22T03:13:23.119Z,4.67
2023-05-22T03:15:49.827Z,4.55
2023-05-22T03:18:16.577Z,4.35
2023-05-22T03:20:43.281Z,5.10
2023-05-22T03:23:11.196Z,5.13
2023-05-22T03:25:37.820Z,4.40
2023-05-22T03:28:04.917Z,4.30
2023-05-22T03:30:32.316Z,4.60
2023-05-22T03:32:59.029Z,4.55
2023-05-22T03:35:25.791Z,4.23
2023-05-22T03:37:52.508Z,4.43
2023-05-22T03:40:19.365Z,4.15
2023-05-22T03:42:46.013Z,4.63
2023-05-22T03:45:12.707Z,4.00
2023-05-22T03:47:40.038Z,4.47
2023-05-22T03:50:07.424Z,4.40
2023-05-22T03:52:34.190Z,4.83
2023-05-22T03:55:01.190Z,4.50
2023-05-22T03:57:27.942Z,4.67
2023-05-22T03:59:54.658Z,5.25
2023-05-22T04:02:21.464Z,4.47
2023-05-22T04:04:48.873Z,4.93
2023-05-22T04:07:17.649Z,5.17
2023-05-22T04:09:44.370Z,4.10
2023-05-22T04:12:11.109Z,5.03
2023-05-22T04:14:37.908Z,4.75
2023-05-22T04:17:04.863Z,4.53
2023-05-22T04:19:31.580Z,5.00
2023-05-22T04:21:59.021Z,5.47
2023-05-22T04:24:26.911Z,4.60
2023-05-22T04:26:53.687Z,4.70
2023-05-22T04:29:21.644Z,4.18
2023-05-22T04:31:48.303Z,4.85
2023-05-22T04:34:15.834Z,4.97
2023-05-22T04:36:44.302Z,4.60
2023-05-22T04:39:13.136Z,4.78
2023-05-22T04:41:40.218Z,4.55
2023-05-22T04:44:10.002Z,4.72
2023-05-22T04:46:36.842Z,4.60
2023-05-22T04:49:03.975Z,5.15
2023-05-22T04:51:31.624Z,4.93
2023-05-22T04:53:58.393Z,5.88
2023-05-22T04:56:36.120Z,4.57
2023-05-22T04:59:04.812Z,4.55
2023-05-22T05:01:33.229Z,4.57
2023-05-22T05:04:02.372Z,5.25
2023-05-22T05:06:29.112Z,5.45
2023-05-22T05:08:55.776Z,4.45
2023-05-22T05:11:22.513Z,4.85
2023-05-22T05:13:49.894Z,5.45
2023-05-22T05:16:16.584Z,4.57
2023-05-22T05:18:43.395Z,5.25
2023-05-22T05:21:10.405Z,4.90
2023-05-22T05:23:37.060Z,4.88
2023-05-22T05:26:03.902Z,5.00
2023-05-22T05:28:30.621Z,5.55
2023-05-22T05:30:57.972Z,4.72
2023-05-22T05:33:24.842Z,5.40
2023-05-22T05:35:52.043Z,6.07
2023-05-22T05:38:18.713Z,4.78
2023-05-22T05:40:46.221Z,4.78
2023-05-22T05:43:14.490Z,6.43
2023-05-22T05:45:42.964Z,5.10
2023-05-22T05:48:11.486Z,5.28
2023-05-22T05:50:39.082Z,4.78
2023-05-22T05:53:06.382Z,6.68
2023-05-22T05:55:34.531Z,5.15
2023-05-22T05:58:01.422Z,5.05
2023-05-22T06:00:28.336Z,5.35
2023-05-22T06:02:55.420Z,5.63
2023-05-22T06:05:23.114Z,5.50
2023-05-22T06:07:50.011Z,5.25
2023-05-22T06:10:16.677Z,4.90
2023-05-22T06:12:43.365Z,10.27
2023-05-22T06:15:10.419Z,6.68
2023-05-22T06:17:37.124Z,6.70
2023-05-22T06:20:04.686Z,5.80
2023-05-22T06:22:32.106Z,4.95
2023-05-22T06:24:58.875Z,4.78
2023-05-22T06:27:26.999Z,5.57
2023-05-22T06:29:54.212Z,6.18
2023-05-22T06:32:21.104Z,5.53
2023-05-22T06:34:49.004Z,5.50
2023-05-22T06:37:16.255Z,5.28
2023-05-22T06:39:43.564Z,6.82
2023-05-22T06:42:10.283Z,5.55
2023-05-22T06:44:36.994Z,5.63
2023-05-22T06:47:03.740Z,6.07
2023-05-22T06:49:30.796Z,5.88
2023-05-22T06:51:57.497Z,5.28
2023-05-22T06:54:27.800Z,5.05
2023-05-22T06:56:55.247Z,6.20
2023-05-22T06:59:21.978Z,6.53
2023-05-22T07:01:48.833Z,6.18
2023-05-22T07:04:15.587Z,5.35
2023-05-22T07:06:42.518Z,5.15
2023-05-22T07:09:10.514Z,5.28
2023-05-22T07:11:37.554Z,5.70
2023-05-22T07:14:04.867Z,5.93
2023-05-22T07:16:31.715Z,5.28
2023-05-22T07:18:58.485Z,5.43
2023-05-22T07:21:25.223Z,5.18
2023-05-22T07:23:51.951Z,5.80
2023-05-22T07:26:18.639Z,5.00
2023-05-22T07:28:45.504Z,4.97
2023-05-22T07:31:12.810Z,5.78
2023-05-22T07:33:40.245Z,5.00
2023-05-22T07:36:07.195Z,5.15
2023-05-22T07:38:33.806Z,4.88
2023-05-22T07:41:02.127Z,4.78
2023-05-22T07:43:28.773Z,5.00
2023-05-22T07:45:55.457Z,4.57
2023-05-22T07:48:22.809Z,5.55
2023-05-22T07:50:49.448Z,4.95
2023-05-22T07:53:16.117Z,5.57
2023-05-22T07:55:42.760Z,4.97
2023-05-22T07:58:10.122Z,5.30
2023-05-22T08:00:36.765Z,5.65
2023-05-22T08:03:03.856Z,5.88
2023-05-22T08:05:31.412Z,4.75
2023-05-22T08:07:58.099Z,4.85
2023-05-22T08:10:26.433Z,5.13
2023-05-22T08:12:53.286Z,4.57
2023-05-22T08:15:20.173Z,5.63
2023-05-22T08:17:46.886Z,4.88
2023-05-22T08:20:13.810Z,5.10
2023-05-22T08:22:41.272Z,5.20
2023-05-22T08:25:09.960Z,5.25
2023-05-22T08:27:36.647Z,5.00
2023-05-22T08:30:04.032Z,4.40
2023-05-22T08:32:31.351Z,4.38
2023-05-22T08:34:58.930Z,5.00
2023-05-22T08:37:25.708Z,4.55
2023-05-22T08:39:53.004Z,4.68
2023-05-22T08:42:19.798Z,4.55
2023-05-22T08:44:48.231Z,4.45
2023-05-22T08:47:15.630Z,5.13
2023-05-22T08:49:43.600Z,5.13
2023-05-22T08:52:14.384Z,4.63
2023-05-22T08:54:42.206Z,4.70
2023-05-22T08:57:10.109Z,4.65
2023-05-22T08:59:38.771Z,4.35
2023-05-22T09:02:06.966Z,4.45
2023-05-22T09:04:33.751Z,4.20
2023-05-22T09:07:04.825Z,4.40
2023-05-22T09:09:32.568Z,5.20
2023-05-22T09:11:59.485Z,4.32
2023-05-22T09:14:26.847Z,4.35
2023-05-22T09:16:54.342Z,4.50
2023-05-22T09:19:21.260Z,4.13
2023-05-22T09:21:48.260Z,4.53
2023-05-22T09:24:14.975Z,4.25
2023-05-22T09:26:41.640Z,5.47
2023-05-22T09:29:08.607Z,4.72
2023-05-22T09:31:41.150Z,4.63
2023-05-22T09:34:09.550Z,4.22
2023-05-22T09:36:36.359Z,4.28
2023-05-22T09:39:04.184Z,4.10
2023-05-22T09:41:33.894Z,3.80
2023-05-22T09:44:02.142Z,4.13
2023-05-22T09:46:29.404Z,3.78
2023-05-22T09:48:56.793Z,3.65
2023-05-22T09:51:23.505Z,4.50
2023-05-22T09:53:51.653Z,4.07
2023-05-22T09:56:30.765Z,4.20
2023-05-22T09:59:08.572Z,3.70
2023-05-22T10:01:36.222Z,5.18
2023-05-22T10:04:04.508Z,4.15
2023-05-22T10:06:34.056Z,3.95
2023-05-22T10:09:04.371Z,3.80
2023-05-22T10:11:32.840Z,3.95
2023-05-22T10:14:01.119Z,4.60
2023-05-22T10:16:28.470Z,4.55
2023-05-22T10:18:56.463Z,4.35
2023-05-22T10:21:24.820Z,4.53
2023-05-22T10:23:53.353Z,4.03
2023-05-22T10:26:20.190Z,4.25
2023-05-22T10:28:56.439Z,4.03
2023-05-22T10:31:29.380Z,3.58
2023-05-22T10:34:01.379Z,3.47
2023-05-22T10:36:43.745Z,3.72
2023-05-22T10:39:23.795Z,3.70
2023-05-22T10:41:50.550Z,4.05
2023-05-22T10:44:17.860Z,4.13
2023-05-22T10:46:48.970Z,3.97
2023-05-22T10:49:22.179Z,4.57
2023-05-22T10:51:54.722Z,3.72
2023-05-22T10:54:38.150Z,3.40
2023-05-22T10:57:11.467Z,3.40
2023-05-22T10:59:38.240Z,3.75
2023-05-22T11:02:06.363Z,3.25
2023-05-22T11:04:34.243Z,3.47
2023-05-22T11:07:06.981Z,3.55
2023-05-22T11:09:36.556Z,3.50
2023-05-22T11:12:17.594Z,3.70
2023-05-22T11:14:49.931Z,6.50
2023-05-22T11:17:18.912Z,3.33
2023-05-22T11:19:56.731Z,3.33
2023-05-22T11:22:28.980Z,3.28
2023-05-22T11:24:55.675Z,3.90
2023-05-22T11:27:22.440Z,3.50
2023-05-22T11:29:50.133Z,2.63
2023-05-22T11:32:20.218Z,2.92
2023-05-22T11:34:49.325Z,3.38
2023-05-22T11:37:18.499Z,3.33
2023-05-22T11:39:50.797Z,3.65
2023-05-22T11:42:18.614Z,3.22
2023-05-22T11:44:45.627Z,3.60
2023-05-22T11:47:12.501Z,3.83
2023-05-22T11:49:41.277Z,2.95
2023-05-22T11:52:08.363Z,3.05
2023-05-22T11:54:38.617Z,3.35
2023-05-22T11:57:08.226Z,3.30
2023-05-22T11:59:35.505Z,3.60
2023-05-22T12:02:02.339Z,3.13
2023-05-22T12:04:29.043Z,3.20
2023-05-22T12:06:56.081Z,3.35
2023-05-22T12:09:23.294Z,3.30
2023-05-22T12:11:50.226Z,3.45
2023-05-22T12:14:17.582Z,3.45
2023-05-22T12:16:44.398Z,3.22
2023-05-22T12:19:12.127Z,3.58
2023-05-22T12:21:41.100Z,3.83
2023-05-22T12:24:08.349Z,4.55
2023-05-22T12:26:36.044Z,2.97
2023-05-22T12:29:04.345Z,3.47
2023-05-22T12:31:35.575Z,3.97
2023-05-22T12:34:04.509Z,3.63
2023-05-22T12:36:35.472Z,3.05
2023-05-22T12:39:07.219Z,3.60
2023-05-22T12:41:33.943Z,3.28
2023-05-22T12:44:01.454Z,2.90
2023-05-22T12:46:30.107Z,3.45
2023-05-22T12:48:57.695Z,3.10
2023-05-22T12:51:28.439Z,2.75
2023-05-22T12:53:55.332Z,3.17
2023-05-22T12:56:22.088Z,3.42
2023-05-22T12:58:48.846Z,3.22
2023-05-22T13:01:15.726Z,3.15
2023-05-22T13:03:42.473Z,3.05
2023-05-22T13:06:09.979Z,3.17
2023-05-22T13:08:36.717Z,2.92
2023-05-22T13:11:03.444Z,3.20
2023-05-22T13:13:30.148Z,3.17
2023-05-22T13:15:56.912Z,3.20
2023-05-22T13:18:23.606Z,3.20
2023-05-22T13:20:50.631Z,3.63
2023-05-22T13:23:17.966Z,2.85
2023-05-22T13:25:44.615Z,2.90
2023-05-22T13:28:11.542Z,3.25
2023-05-22T13:30:38.399Z,3.42
2023-05-22T13:33:05.360Z,3.45
2023-05-22T13:35:32.083Z,2.78
2023-05-22T13:37:58.762Z,3.28
2023-05-22T13:40:26.128Z,3.17
2023-05-22T13:42:52.853Z,3.75
2023-05-22T13:45:19.810Z,3.50
2023-05-22T13:47:46.594Z,3.17
2023-05-22T13:50:13.365Z,3.58
2023-05-22T13:52:40.140Z,8.48
2023-05-22T13:55:07.476Z,3.45
2023-05-22T13:57:36.330Z,3.47
2023-05-22T14:00:03.132Z,3.28
2023-05-22T14:02:30.138Z,3.53
2023-05-22T14:04:57.097Z,3.58
2023-05-22T14:07:24.187Z,3.15
2023-05-22T14:09:50.885Z,3.35
2023-05-22T14:12:17.567Z,3.17
2023-05-22T14:14:44.898Z,3.25
2023-05-22T14:17:11.698Z,3.40
2023-05-22T14:19:38.959Z,3.33
2023-05-22T14:22:05.625Z,3.05
2023-05-22T14:24:32.435Z,2.90
2023-05-22T14:26:59.113Z,3.03
2023-05-22T14:29:25.816Z,3.13
2023-05-22T14:32:01.278Z,2.78
2023-05-22T14:34:27.968Z,3.25
2023-05-22T14:36:55.866Z,2.80
2023-05-22T14:39:23.982Z,3.55
2023-05-22T14:41:50.729Z,3.45
2023-05-22T14:44:18.562Z,2.58
2023-05-22T14:46:45.444Z,3.00
2023-05-22T14:49:12.822Z,3.28
2023-05-22T14:51:39.582Z,3.55
2023-05-22T14:54:07.036Z,3.10
2023-05-22T14:56:34.009Z,3.25
2023-05-22T14:59:00.822Z,3.00
2023-05-22T15:01:27.660Z,3.08
2023-05-22T15:03:54.513Z,2.97
2023-05-22T15:06:21.923Z,3.17
2023-05-22T15:08:48.606Z,3.05
2023-05-22T15:11:15.314Z,3.42
2023-05-22T15:13:41.955Z,2.83
2023-05-22T15:16:08.935Z,2.47
2023-05-22T15:18:35.667Z,2.85
2023-05-22T15:21:02.862Z,3.13
2023-05-22T15:23:30.594Z,3.17
2023-05-22T15:25:57.550Z,2.72
2023-05-22T15:28:24.709Z,3.03
2023-05-22T15:30:51.528Z,2.75
2023-05-22T15:33:18.574Z,3.30
2023-05-22T15:35:46.739Z,3.15
2023-05-22T15:38:15.198Z,3.65
2023-05-22T15:40:44.554Z,2.90
2023-05-22T15:43:11.587Z,2.75
2023-05-22T15:45:39.341Z,3.22
2023-05-22T15:48:07.347Z,3.67
2023-05-22T15:50:34.882Z,3.25
2023-05-22T15:53:01.978Z,2.92
2023-05-22T15:55:29.134Z,3.40
2023-05-22T15:57:58.346Z,3.47
2023-05-22T16:00:26.067Z,3.40
2023-05-22T16:02:53.389Z,3.53
2023-05-22T16:05:20.673Z,3.70
2023-05-22T16:07:47.679Z,3.50
2023-05-22T16:10:14.733Z,3.45
2023-05-22T16:12:41.961Z,3.50
2023-05-22T16:15:11.239Z,4.90
2023-05-22T16:17:39.073Z,3.60
2023-05-22T16:20:08.090Z,3.55
2023-05-22T16:22:47.420Z,3.47
2023-05-22T16:25:16.314Z,3.33
2023-05-22T16:27:43.223Z,3.95
2023-05-22T16:30:11.488Z,3.83
2023-05-22T16:32:38.493Z,4.20
2023-05-22T16:35:06.170Z,3.30
2023-05-22T16:37:33.708Z,3.35
2023-05-22T16:40:00.787Z,3.45
2023-05-22T16:42:27.690Z,3.38
2023-05-22T16:44:54.906Z,4.05
2023-05-22T16:47:22.885Z,3.63
2023-05-22T16:49:50.324Z,3.75
2023-05-22T16:52:21.521Z,4.03
2023-05-22T16:54:48.425Z,3.35
2023-05-22T16:57:16.342Z,3.65
2023-05-22T16:59:43.612Z,4.10
2023-05-22T17:02:11.336Z,3.95
2023-05-22T17:04:39.957Z,3.53
2023-05-22T17:07:07.072Z,4.05
2023-05-22T17:09:34.110Z,3.55
2023-05-22T17:12:01.154Z,3.60
2023-05-22T17:14:27.881Z,3.78
2023-05-22T17:16:56.011Z,3.50
2023-05-22T17:19:22.983Z,3.60
2023-05-22T17:21:50.463Z,4.40
2023-05-22T17:24:17.248Z,3.83
2023-05-22T17:26:44.363Z,3.67
2023-05-22T17:29:11.363Z,3.83
2023-05-22T17:31:39.493Z,3.38
2023-05-22T17:34:06.724Z,4.00
2023-05-22T17:36:33.914Z,4.10
2023-05-22T17:39:04.230Z,3.50
2023-05-22T17:41:30.999Z,4.00
2023-05-22T17:44:00.297Z,4.00
2023-05-22T17:46:27.451Z,3.45
2023-05-22T17:48:54.570Z,4.43
2023-05-22T17:51:21.770Z,4.15
2023-05-22T17:53:48.574Z,4.80
2023-05-22T17:56:16.947Z,4.18
2023-05-22T17:58:43.750Z,4.07
2023-05-22T18:01:10.923Z,4.45
2023-05-22T18:03:37.827Z,3.83
2023-05-22T18:06:05.467Z,3.72
2023-05-22T18:08:32.242Z,4.05
2023-05-22T18:10:59.019Z,5.90
2023-05-22T18:13:26.530Z,6.18
2023-05-22T18:15:53.676Z,5.25
2023-05-22T18:18:21.691Z,4.57
2023-05-22T18:20:48.850Z,4.10
2023-05-22T18:23:16.179Z,4.05
2023-05-22T18:25:43.508Z,3.67
2023-05-22T18:28:10.730Z,4.28
2023-05-22T18:30:38.379Z,3.67
2023-05-22T18:33:05.401Z,3.67
2023-05-22T18:35:32.764Z,4.25
2023-05-22T18:38:00.085Z,2.97
2023-05-22T18:40:27.177Z,5.10
2023-05-22T18:42:54.155Z,4.10
2023-05-22T18:45:21.436Z,3.67
2023-05-22T18:47:49.257Z,4.30
2023-05-22T18:50:16.633Z,3.28
2023-05-22T18:52:43.558Z,4.43
2023-05-22T18:55:10.588Z,4.25
2023-05-22T18:57:37.689Z,4.03
2023-05-22T19:00:06.687Z,4.20
2023-05-22T19:02:33.745Z,3.03
2023-05-22T19:05:01.498Z,3.42
2023-05-22T19:07:29.039Z,4.65
2023-05-22T19:09:56.388Z,3.60
2023-05-22T19:12:23.915Z,4.75
2023-05-22T19:14:52.106Z,3.97
2023-05-22T19:17:19.317Z,4.45
2023-05-22T19:19:46.396Z,4.43
2023-05-22T19:22:17.739Z,4.30
2023-05-22T19:24:44.699Z,4.53
2023-05-22T19:27:11.450Z,5.60
2023-05-22T19:29:38.263Z,4.97
2023-05-22T19:32:06.108Z,5.65
2023-05-22T19:34:33.258Z,5.95
2023-05-22T19:37:00.345Z,4.85
2023-05-22T19:39:28.016Z,4.20
2023-05-22T19:41:55.188Z,4.90
2023-05-22T19:44:22.283Z,4.82
2023-05-22T19:46:49.325Z,4.68
2023-05-22T19:49:16.257Z,5.30
2023-05-22T19:51:44.169Z,4.47
2023-05-22T19:54:11.669Z,4.95
2023-05-22T19:56:39.622Z,4.80
2023-05-22T19:59:06.866Z,4.05
2023-05-22T20:01:34.071Z,4.38
2023-05-22T20:04:01.351Z,5.20
2023-05-22T20:06:32.481Z,5.20
2023-05-22T20:09:01.349Z,5.28
2023-05-22T20:11:29.456Z,4.80
2023-05-22T20:13:57.203Z,3.70
2023-05-22T20:16:28.568Z,4.35
2023-05-22T20:18:57.076Z,3.83
2023-05-22T20:21:24.271Z,3.88
2023-05-22T20:23:52.226Z,4.45
2023-05-22T20:26:19.779Z,4.07
2023-05-22T20:28:47.913Z,4.60
2023-05-22T20:31:16.184Z,4.25
2023-05-22T20:33:42.917Z,4.43
2023-05-22T20:36:11.398Z,4.07
2023-05-22T20:38:41.802Z,3.60
2023-05-22T20:41:09.804Z,4.22
2023-05-22T20:43:37.391Z,4.22
2023-05-22T20:46:05.043Z,4.35
2023-05-22T20:48:32.427Z,4.38
2023-05-22T20:50:59.247Z,4.03
2023-05-22T20:53:26.853Z,4.70
2023-05-22T20:55:54.237Z,4.30
2023-05-22T20:58:22.222Z,4.50
2023-05-22T21:00:49.550Z,3.97
2023-05-22T21:03:17.019Z,3.83
2023-05-22T21:05:44.485Z,4.22
2023-05-22T21:08:11.155Z,4.55
2023-05-22T21:10:37.989Z,4.15
2023-05-22T21:13:04.731Z,4.50
2023-05-22T21:15:31.381Z,4.40
2023-05-22T21:17:58.233Z,5.15
2023-05-22T21:20:25.897Z,4.30
2023-05-22T21:22:53.217Z,3.80
2023-05-22T21:25:19.987Z,4.20
2023-05-22T21:27:48.561Z,4.20
2023-05-22T21:30:15.539Z,4.65
2023-05-22T21:32:42.444Z,4.88
2023-05-22T21:35:09.863Z,4.50
2023-05-22T21:37:36.530Z,4.43
2023-05-22T21:40:04.346Z,4.35
2023-05-22T21:42:41.936Z,4.28
2023-05-22T21:45:13.031Z,4.47
2023-05-22T21:47:39.929Z,4.90
2023-05-22T21:50:07.333Z,4.05
2023-05-22T21:52:33.987Z,4.97
2023-05-22T21:55:01.642Z,4.20
2023-05-22T21:57:28.953Z,5.00
2023-05-22T21:59:55.664Z,4.65
2023-05-22T22:02:22.335Z,5.53
2023-05-22T22:04:49.062Z,4.40
2023-05-22T22:07:15.831Z,4.15
2023-05-22T22:09:42.617Z,4.05
2023-05-22T22:12:09.379Z,4.35
2023-05-22T22:14:36.753Z,4.47
2023-05-22T22:17:05.084Z,3.72
2023-05-22T22:19:33.429Z,3.80
2023-05-22T22:22:00.348Z,4.20
2023-05-22T22:24:27.074Z,4.95
2023-05-22T22:26:54.270Z,4.22
2023-05-22T22:29:20.943Z,4.55
2023-05-22T22:31:48.334Z,5.05
2023-05-22T22:34:15.188Z,4.75
2023-05-22T22:36:41.984Z,4.63
2023-05-22T22:39:08.674Z,4.32
2023-05-22T22:41:35.417Z,4.47
2023-05-22T22:44:02.201Z,4.68
2023-05-22T22:46:28.940Z,4.53
2023-05-22T22:48:58.177Z,4.32
2023-05-22T22:51:24.896Z,4.57
2023-05-22T22:53:51.557Z,4.20
2023-05-22T22:56:18.406Z,4.55
2023-05-22T22:58:45.163Z,4.57
2023-05-22T23:01:11.865Z,4.82
2023-05-22T23:03:38.514Z,4.55
2023-05-22T23:06:06.112Z,4.35
2023-05-22T23:08:32.760Z,4.05
2023-05-22T23:10:59.593Z,4.25
2023-05-22T23:13:26.264Z,4.25
2023-05-22T23:15:53.142Z,4.07
2023-05-22T23:18:20.145Z,4.43
2023-05-22T23:20:46.871Z,3.72
2023-05-22T23:23:14.325Z,3.83
2023-05-22T23:25:41.079Z,4.53
2023-05-22T23:28:08.159Z,4.05
2023-05-22T23:30:34.840Z,4.55
2023-05-22T23:33:02.064Z,4.30
2023-05-22T23:35:28.796Z,4.53
2023-05-22T23:37:55.454Z,4.03
2023-05-22T23:40:22.769Z,4.28
2023-05-22T23:42:49.401Z,4.28
2023-05-22T23:45:16.098Z,4.13
2023-05-22T23:47:42.790Z,4.53
2023-05-22T23:50:10.349Z,4.18
2023-05-22T23:52:37.123Z,4.32
2023-05-22T23:55:04.388Z,4.60
2023-05-22T23:57:32.069Z,4.72
2023-05-22T23:59:58.707Z,4.35
